sensor_id;sensor_type;location;lat;lon;timestamp;temperature;humidity
37702;DHT22;23548;51.196;6.838;2023-08-06T00:00:39;15.70;99.90
37702;DHT22;23548;51.196;6.838;2023-08-06T00:03:05;15.70;99.90
37702;DHT22;23548;51.196;6.838;2023-08-06T00:05:31;15.60;99.90
37702;DHT22;23548;51.196;6.838;2023-08-06T00:07:57;15.60;99.90
37702;DHT22;23548;51.196;6.838;2023-08-06T00:10:23;15.50;99.90
37702;DHT22;23548;51.196;6.838;2023-08-06T00:12:48;15.50;99.90
37702;DHT22;23548;51.196;6.838;2023-08-06T00:15:14;15.50;99.90
37702;DHT22;23548;51.196;6.838;2023-08-06T00:17:40;15.60;99.90
37702;DHT22;23548;51.196;6.838;2023-08-06T00:20:07;15.60;99.90
37702;DHT22;23548;51.196;6.838;2023-08-06T00:22:35;15.50;99.90
37702;DHT22;23548;51.196;6.838;2023-08-06T00:25:02;15.40;99.90
37702;DHT22;23548;51.196;6.838;2023-08-06T00:27:29;15.30;99.90
37702;DHT22;23548;51.196;6.838;2023-08-06T00:29:54;15.20;99.90
37702;DHT22;23548;51.196;6.838;2023-08-06T00:32:21;15.10;99.90
37702;DHT22;23548;51.196;6.838;2023-08-06T00:34:47;15.00;99.90
37702;DHT22;23548;51.196;6.838;2023-08-06T00:37:16;15.00;99.90
37702;DHT22;23548;51.196;6.838;2023-08-06T00:39:42;15.00;99.90
37702;DHT22;23548;51.196;6.838;2023-08-06T00:42:09;15.00;99.90
37702;DHT22;23548;51.196;6.838;2023-08-06T00:44:35;15.00;99.90
37702;DHT22;23548;51.196;6.838;2023-08-06T00:47:02;15.00;99.90
37702;DHT22;23548;51.196;6.838;2023-08-06T00:49:28;15.10;99.90
37702;DHT22;23548;51.196;6.838;2023-08-06T00:51:54;15.10;99.90
37702;DHT22;23548;51.196;6.838;2023-08-06T00:54:20;15.20;99.90
37702;DHT22;23548;51.196;6.838;2023-08-06T00:56:46;15.30;99.90
37702;DHT22;23548;51.196;6.838;2023-08-06T00:59:13;15.30;99.90
37702;DHT22;23548;51.196;6.838;2023-08-06T01:01:39;15.40;99.90
37702;DHT22;23548;51.196;6.838;2023-08-06T01:04:05;15.50;99.90
37702;DHT22;23548;51.196;6.838;2023-08-06T01:09:27;15.70;99.90
37702;DHT22;23548;51.196;6.838;2023-08-06T01:12:34;15.70;99.90
37702;DHT22;23548;51.196;6.838;2023-08-06T01:15:19;15.70;99.90
37702;DHT22;23548;51.196;6.838;2023-08-06T01:17:47;15.70;99.90
37702;DHT22;23548;51.196;6.838;2023-08-06T01:20:13;15.70;99.90
37702;DHT22;23548;51.196;6.838;2023-08-06T01:22:39;15.60;99.90
37702;DHT22;23548;51.196;6.838;2023-08-06T01:25:06;15.60;99.90
37702;DHT22;23548;51.196;6.838;2023-08-06T01:27:53;15.70;99.90
37702;DHT22;23548;51.196;6.838;2023-08-06T01:30:30;15.70;99.90
37702;DHT22;23548;51.196;6.838;2023-08-06T01:33:04;15.70;99.90
37702;DHT22;23548;51.196;6.838;2023-08-06T01:35:31;15.70;99.90
37702;DHT22;23548;51.196;6.838;2023-08-06T01:38:01;15.70;99.90
37702;DHT22;23548;51.196;6.838;2023-08-06T01:40:28;15.70;99.90
37702;DHT22;23548;51.196;6.838;2023-08-06T01:42:55;15.60;99.90
37702;DHT22;23548;51.196;6.838;2023-08-06T01:45:21;15.60;99.90
37702;DHT22;23548;51.196;6.838;2023-08-06T01:47:46;15.60;99.90
37702;DHT22;23548;51.196;6.838;2023-08-06T01:50:12;15.60;99.90
37702;DHT22;23548;51.196;6.838;2023-08-06T01:52:38;15.50;99.90
37702;DHT22;23548;51.196;6.838;2023-08-06T01:55:04;15.60;99.90
37702;DHT22;23548;51.196;6.838;2023-08-06T01:57:29;15.70;99.90
37702;DHT22;23548;51.196;6.838;2023-08-06T01:59:55;15.80;99.90
37702;DHT22;23548;51.196;6.838;2023-08-06T02:02:21;15.80;99.90
37702;DHT22;23548;51.196;6.838;2023-08-06T02:04:47;15.80;99.90
37702;DHT22;23548;51.196;6.838;2023-08-06T02:07:13;15.70;99.90
37702;DHT22;23548;51.196;6.838;2023-08-06T02:09:38;15.60;99.90
37702;DHT22;23548;51.196;6.838;2023-08-06T02:12:05;15.60;99.90
37702;DHT22;23548;51.196;6.838;2023-08-06T02:14:32;15.60;99.90
37702;DHT22;23548;51.196;6.838;2023-08-06T02:16:58;15.60;99.90
37702;DHT22;23548;51.196;6.838;2023-08-06T02:19:23;15.60;99.90
37702;DHT22;23548;51.196;6.838;2023-08-06T02:21:49;15.60;99.90
37702;DHT22;23548;51.196;6.838;2023-08-06T02:24:15;15.60;99.90
37702;DHT22;23548;51.196;6.838;2023-08-06T02:26:41;15.60;99.90
37702;DHT22;23548;51.196;6.838;2023-08-06T02:29:06;15.60;99.90
37702;DHT22;23548;51.196;6.838;2023-08-06T02:31:32;15.60;99.90
37702;DHT22;23548;51.196;6.838;2023-08-06T02:33:58;15.60;99.90
37702;DHT22;23548;51.196;6.838;2023-08-06T02:36:24;15.60;99.90
37702;DHT22;23548;51.196;6.838;2023-08-06T02:38:50;15.60;99.90
37702;DHT22;23548;51.196;6.838;2023-08-06T02:41:16;15.50;99.90
37702;DHT22;23548;51.196;6.838;2023-08-06T02:43:42;15.40;99.90
37702;DHT22;23548;51.196;6.838;2023-08-06T02:46:08;15.50;99.90
37702;DHT22;23548;51.196;6.838;2023-08-06T02:48:33;15.50;99.90
37702;DHT22;23548;51.196;6.838;2023-08-06T02:51:00;15.50;99.90
37702;DHT22;23548;51.196;6.838;2023-08-06T02:53:25;15.50;99.90
37702;DHT22;23548;51.196;6.838;2023-08-06T02:55:51;15.50;99.90
37702;DHT22;23548;51.196;6.838;2023-08-06T02:58:17;15.50;99.90
37702;DHT22;23548;51.196;6.838;2023-08-06T03:00:58;15.50;99.90
37702;DHT22;23548;51.196;6.838;2023-08-06T03:03:24;15.50;99.90
37702;DHT22;23548;51.196;6.838;2023-08-06T03:05:54;15.50;99.90
37702;DHT22;23548;51.196;6.838;2023-08-06T03:08:19;15.50;99.90
37702;DHT22;23548;51.196;6.838;2023-08-06T03:10:51;15.50;99.90
37702;DHT22;23548;51.196;6.838;2023-08-06T03:13:19;15.40;99.90
37702;DHT22;23548;51.196;6.838;2023-08-06T03:15:59;15.40;99.90
37702;DHT22;23548;51.196;6.838;2023-08-06T03:18:25;15.40;99.90
37702;DHT22;23548;51.196;6.838;2023-08-06T03:20:54;15.30;99.90
37702;DHT22;23548;51.196;6.838;2023-08-06T03:23:20;15.30;99.90
37702;DHT22;23548;51.196;6.838;2023-08-06T03:25:46;15.30;99.90
37702;DHT22;23548;51.196;6.838;2023-08-06T03:28:12;15.30;99.90
37702;DHT22;23548;51.196;6.838;2023-08-06T03:30:38;15.20;99.90
37702;DHT22;23548;51.196;6.838;2023-08-06T03:33:04;15.20;99.90
37702;DHT22;23548;51.196;6.838;2023-08-06T03:35:30;15.20;99.90
37702;DHT22;23548;51.196;6.838;2023-08-06T03:37:56;15.20;99.90
37702;DHT22;23548;51.196;6.838;2023-08-06T03:40:21;15.20;99.90
37702;DHT22;23548;51.196;6.838;2023-08-06T03:42:47;15.20;99.90
37702;DHT22;23548;51.196;6.838;2023-08-06T03:45:13;15.20;99.90
37702;DHT22;23548;51.196;6.838;2023-08-06T03:47:39;15.10;99.90
37702;DHT22;23548;51.196;6.838;2023-08-06T03:50:05;15.20;99.90
37702;DHT22;23548;51.196;6.838;2023-08-06T03:52:31;15.20;99.90
37702;DHT22;23548;51.196;6.838;2023-08-06T03:54:57;15.20;99.90
37702;DHT22;23548;51.196;6.838;2023-08-06T03:57:22;15.20;99.90
37702;DHT22;23548;51.196;6.838;2023-08-06T03:59:48;15.20;99.90
37702;DHT22;23548;51.196;6.838;2023-08-06T04:02:14;15.20;99.90
37702;DHT22;23548;51.196;6.838;2023-08-06T04:04:39;15.20;99.90
37702;DHT22;23548;51.196;6.838;2023-08-06T04:07:05;15.30;99.90
37702;DHT22;23548;51.196;6.838;2023-08-06T04:09:31;15.30;99.90
37702;DHT22;23548;51.196;6.838;2023-08-06T04:11:57;15.30;99.90
37702;DHT22;23548;51.196;6.838;2023-08-06T04:14:25;15.30;99.90
37702;DHT22;23548;51.196;6.838;2023-08-06T04:16:52;15.30;99.90
37702;DHT22;23548;51.196;6.838;2023-08-06T04:19:17;15.40;99.90
37702;DHT22;23548;51.196;6.838;2023-08-06T04:21:43;15.40;99.90
37702;DHT22;23548;51.196;6.838;2023-08-06T04:24:09;15.40;99.90
37702;DHT22;23548;51.196;6.838;2023-08-06T04:26:34;15.40;99.90
37702;DHT22;23548;51.196;6.838;2023-08-06T04:29:00;15.40;99.90
37702;DHT22;23548;51.196;6.838;2023-08-06T04:31:26;15.40;99.90
37702;DHT22;23548;51.196;6.838;2023-08-06T04:33:52;15.50;99.90
37702;DHT22;23548;51.196;6.838;2023-08-06T04:36:17;15.50;99.90
37702;DHT22;23548;51.196;6.838;2023-08-06T04:38:43;15.50;99.90
37702;DHT22;23548;51.196;6.838;2023-08-06T04:41:11;15.60;99.90
37702;DHT22;23548;51.196;6.838;2023-08-06T04:43:37;15.60;99.90
37702;DHT22;23548;51.196;6.838;2023-08-06T04:46:03;15.70;99.90
37702;DHT22;23548;51.196;6.838;2023-08-06T04:48:28;15.70;99.90
37702;DHT22;23548;51.196;6.838;2023-08-06T04:50:54;15.70;99.90
37702;DHT22;23548;51.196;6.838;2023-08-06T04:53:20;15.80;99.90
37702;DHT22;23548;51.196;6.838;2023-08-06T04:55:46;15.80;99.90
37702;DHT22;23548;51.196;6.838;2023-08-06T04:58:13;15.80;99.90
37702;DHT22;23548;51.196;6.838;2023-08-06T05:00:38;15.80;99.90
37702;DHT22;23548;51.196;6.838;2023-08-06T05:03:05;15.90;99.90
37702;DHT22;23548;51.196;6.838;2023-08-06T05:05:31;16.00;99.90
37702;DHT22;23548;51.196;6.838;2023-08-06T05:07:57;16.20;99.90
37702;DHT22;23548;51.196;6.838;2023-08-06T05:10:26;16.30;99.90
37702;DHT22;23548;51.196;6.838;2023-08-06T05:12:52;16.40;99.90
37702;DHT22;23548;51.196;6.838;2023-08-06T05:15:18;16.50;99.90
37702;DHT22;23548;51.196;6.838;2023-08-06T05:17:44;16.50;99.90
37702;DHT22;23548;51.196;6.838;2023-08-06T05:20:11;16.60;99.90
37702;DHT22;23548;51.196;6.838;2023-08-06T05:22:36;16.60;99.90
37702;DHT22;23548;51.196;6.838;2023-08-06T05:25:02;16.70;99.90
37702;DHT22;23548;51.196;6.838;2023-08-06T05:27:28;16.80;99.90
37702;DHT22;23548;51.196;6.838;2023-08-06T05:29:55;16.70;99.90
37702;DHT22;23548;51.196;6.838;2023-08-06T05:32:24;16.90;99.90
37702;DHT22;23548;51.196;6.838;2023-08-06T05:34:50;16.80;99.90
37702;DHT22;23548;51.196;6.838;2023-08-06T05:37:16;17.00;99.90
37702;DHT22;23548;51.196;6.838;2023-08-06T05:39:41;17.10;99.90
37702;DHT22;23548;51.196;6.838;2023-08-06T05:42:07;17.20;99.90
37702;DHT22;23548;51.196;6.838;2023-08-06T05:44:33;17.30;99.90
37702;DHT22;23548;51.196;6.838;2023-08-06T05:46:59;17.10;99.90
37702;DHT22;23548;51.196;6.838;2023-08-06T05:49:25;17.40;99.90
37702;DHT22;23548;51.196;6.838;2023-08-06T05:51:50;17.50;99.90
37702;DHT22;23548;51.196;6.838;2023-08-06T05:54:19;17.60;99.90
37702;DHT22;23548;51.196;6.838;2023-08-06T05:56:44;17.60;99.90
37702;DHT22;23548;51.196;6.838;2023-08-06T05:59:10;17.60;99.90
37702;DHT22;23548;51.196;6.838;2023-08-06T06:01:36;17.50;99.90
37702;DHT22;23548;51.196;6.838;2023-08-06T06:04:02;17.80;99.90
37702;DHT22;23548;51.196;6.838;2023-08-06T06:06:27;18.00;99.90
37702;DHT22;23548;51.196;6.838;2023-08-06T06:08:54;17.90;99.90
37702;DHT22;23548;51.196;6.838;2023-08-06T06:11:19;17.90;99.90
37702;DHT22;23548;51.196;6.838;2023-08-06T06:13:50;17.60;99.90
37702;DHT22;23548;51.196;6.838;2023-08-06T06:16:16;17.60;99.90
37702;DHT22;23548;51.196;6.838;2023-08-06T06:18:42;17.70;99.90
37702;DHT22;23548;51.196;6.838;2023-08-06T06:21:08;17.70;99.90
37702;DHT22;23548;51.196;6.838;2023-08-06T06:23:33;17.50;99.90
37702;DHT22;23548;51.196;6.838;2023-08-06T06:25:59;17.50;99.90
37702;DHT22;23548;51.196;6.838;2023-08-06T06:28:25;17.50;99.90
37702;DHT22;23548;51.196;6.838;2023-08-06T06:30:51;17.90;99.90
37702;DHT22;23548;51.196;6.838;2023-08-06T06:33:18;18.10;99.90
37702;DHT22;23548;51.196;6.838;2023-08-06T06:35:43;18.30;99.90
37702;DHT22;23548;51.196;6.838;2023-08-06T06:38:09;18.30;99.90
37702;DHT22;23548;51.196;6.838;2023-08-06T06:40:35;18.30;99.90
37702;DHT22;23548;51.196;6.838;2023-08-06T06:43:00;18.40;99.90
37702;DHT22;23548;51.196;6.838;2023-08-06T06:45:26;18.80;99.90
37702;DHT22;23548;51.196;6.838;2023-08-06T06:47:52;19.10;99.90
37702;DHT22;23548;51.196;6.838;2023-08-06T06:50:18;18.80;99.90
37702;DHT22;23548;51.196;6.838;2023-08-06T06:52:43;18.90;99.90
37702;DHT22;23548;51.196;6.838;2023-08-06T06:55:09;18.80;99.90
37702;DHT22;23548;51.196;6.838;2023-08-06T06:57:35;18.60;99.90
37702;DHT22;23548;51.196;6.838;2023-08-06T07:00:01;18.50;99.90
37702;DHT22;23548;51.196;6.838;2023-08-06T07:02:26;18.40;99.90
37702;DHT22;23548;51.196;6.838;2023-08-06T07:04:52;18.80;99.90
37702;DHT22;23548;51.196;6.838;2023-08-06T07:07:18;19.20;99.90
37702;DHT22;23548;51.196;6.838;2023-08-06T07:09:44;19.10;99.90
37702;DHT22;23548;51.196;6.838;2023-08-06T07:12:10;19.30;99.90
37702;DHT22;23548;51.196;6.838;2023-08-06T07:14:36;19.20;99.90
37702;DHT22;23548;51.196;6.838;2023-08-06T07:17:01;19.30;99.90
37702;DHT22;23548;51.196;6.838;2023-08-06T07:19:27;19.40;99.90
37702;DHT22;23548;51.196;6.838;2023-08-06T07:21:53;19.30;99.90
37702;DHT22;23548;51.196;6.838;2023-08-06T07:24:19;18.80;99.90
37702;DHT22;23548;51.196;6.838;2023-08-06T07:26:45;19.00;99.90
37702;DHT22;23548;51.196;6.838;2023-08-06T07:29:11;18.80;99.90
37702;DHT22;23548;51.196;6.838;2023-08-06T07:31:36;18.90;99.90
37702;DHT22;23548;51.196;6.838;2023-08-06T07:34:02;18.80;99.90
37702;DHT22;23548;51.196;6.838;2023-08-06T07:36:28;18.40;99.90
37702;DHT22;23548;51.196;6.838;2023-08-06T07:38:55;18.30;99.90
37702;DHT22;23548;51.196;6.838;2023-08-06T07:41:23;18.50;99.90
37702;DHT22;23548;51.196;6.838;2023-08-06T07:43:49;19.20;99.90
37702;DHT22;23548;51.196;6.838;2023-08-06T07:46:15;19.60;99.90
37702;DHT22;23548;51.196;6.838;2023-08-06T07:48:40;20.00;99.90
37702;DHT22;23548;51.196;6.838;2023-08-06T07:51:06;20.30;99.90
37702;DHT22;23548;51.196;6.838;2023-08-06T07:53:32;20.10;99.90
37702;DHT22;23548;51.196;6.838;2023-08-06T07:55:58;20.40;99.90
37702;DHT22;23548;51.196;6.838;2023-08-06T07:58:25;20.00;99.90
37702;DHT22;23548;51.196;6.838;2023-08-06T08:00:51;20.20;99.90
37702;DHT22;23548;51.196;6.838;2023-08-06T08:03:17;19.90;99.90
37702;DHT22;23548;51.196;6.838;2023-08-06T08:05:43;19.50;99.90
37702;DHT22;23548;51.196;6.838;2023-08-06T08:08:09;19.50;99.90
37702;DHT22;23548;51.196;6.838;2023-08-06T08:10:35;19.80;99.90
37702;DHT22;23548;51.196;6.838;2023-08-06T08:13:02;19.40;99.90
37702;DHT22;23548;51.196;6.838;2023-08-06T08:15:28;19.50;99.90
37702;DHT22;23548;51.196;6.838;2023-08-06T08:17:55;20.10;99.90
37702;DHT22;23548;51.196;6.838;2023-08-06T08:20:20;20.10;99.90
37702;DHT22;23548;51.196;6.838;2023-08-06T08:22:46;20.20;99.90
37702;DHT22;23548;51.196;6.838;2023-08-06T08:25:13;20.10;99.90
37702;DHT22;23548;51.196;6.838;2023-08-06T08:27:38;20.40;99.90
37702;DHT22;23548;51.196;6.838;2023-08-06T08:30:05;20.40;99.90
37702;DHT22;23548;51.196;6.838;2023-08-06T08:32:31;20.00;99.90
37702;DHT22;23548;51.196;6.838;2023-08-06T08:34:57;19.90;99.90
37702;DHT22;23548;51.196;6.838;2023-08-06T08:37:23;19.80;99.90
37702;DHT22;23548;51.196;6.838;2023-08-06T08:39:49;19.90;99.90
37702;DHT22;23548;51.196;6.838;2023-08-06T08:42:15;19.90;99.90
37702;DHT22;23548;51.196;6.838;2023-08-06T08:44:42;20.00;99.90
37702;DHT22;23548;51.196;6.838;2023-08-06T08:47:10;20.40;99.90
37702;DHT22;23548;51.196;6.838;2023-08-06T08:49:36;20.40;99.90
37702;DHT22;23548;51.196;6.838;2023-08-06T08:52:03;20.50;99.90
37702;DHT22;23548;51.196;6.838;2023-08-06T08:54:33;20.50;99.90
37702;DHT22;23548;51.196;6.838;2023-08-06T08:57:00;20.70;99.90
37702;DHT22;23548;51.196;6.838;2023-08-06T08:59:27;20.70;99.90
37702;DHT22;23548;51.196;6.838;2023-08-06T09:01:53;21.00;99.90
37702;DHT22;23548;51.196;6.838;2023-08-06T09:04:20;21.30;99.90
37702;DHT22;23548;51.196;6.838;2023-08-06T09:06:51;21.40;99.90
37702;DHT22;23548;51.196;6.838;2023-08-06T09:09:26;21.40;99.90
37702;DHT22;23548;51.196;6.838;2023-08-06T09:11:57;21.80;99.90
37702;DHT22;23548;51.196;6.838;2023-08-06T09:14:23;21.80;99.90
37702;DHT22;23548;51.196;6.838;2023-08-06T09:16:49;21.80;99.90
37702;DHT22;23548;51.196;6.838;2023-08-06T09:19:15;21.40;99.90
37702;DHT22;23548;51.196;6.838;2023-08-06T09:21:44;21.30;99.90
37702;DHT22;23548;51.196;6.838;2023-08-06T09:24:14;21.10;99.90
37702;DHT22;23548;51.196;6.838;2023-08-06T09:26:41;21.50;99.90
37702;DHT22;23548;51.196;6.838;2023-08-06T09:29:09;21.60;99.90
37702;DHT22;23548;51.196;6.838;2023-08-06T09:31:45;21.90;99.90
37702;DHT22;23548;51.196;6.838;2023-08-06T09:34:21;22.10;99.90
37702;DHT22;23548;51.196;6.838;2023-08-06T09:36:52;22.20;99.90
37702;DHT22;23548;51.196;6.838;2023-08-06T09:39:20;21.90;99.90
37702;DHT22;23548;51.196;6.838;2023-08-06T09:41:46;21.80;99.90
37702;DHT22;23548;51.196;6.838;2023-08-06T09:44:19;21.40;99.90
37702;DHT22;23548;51.196;6.838;2023-08-06T09:46:54;20.40;99.90
37702;DHT22;23548;51.196;6.838;2023-08-06T09:49:25;19.50;99.90
37702;DHT22;23548;51.196;6.838;2023-08-06T09:51:51;18.40;99.90
37702;DHT22;23548;51.196;6.838;2023-08-06T09:54:19;17.60;99.90
37702;DHT22;23548;51.196;6.838;2023-08-06T09:56:45;17.20;99.90
37702;DHT22;23548;51.196;6.838;2023-08-06T09:59:14;17.00;99.90
37702;DHT22;23548;51.196;6.838;2023-08-06T10:01:41;16.80;99.90
37702;DHT22;23548;51.196;6.838;2023-08-06T10:04:07;16.70;99.90
37702;DHT22;23548;51.196;6.838;2023-08-06T10:06:37;16.80;99.90
37702;DHT22;23548;51.196;6.838;2023-08-06T10:09:04;16.60;99.90
37702;DHT22;23548;51.196;6.838;2023-08-06T10:11:30;16.60;99.90
37702;DHT22;23548;51.196;6.838;2023-08-06T10:14:14;16.40;99.90
37702;DHT22;23548;51.196;6.838;2023-08-06T10:16:42;16.20;99.90
37702;DHT22;23548;51.196;6.838;2023-08-06T10:19:10;16.00;99.90
37702;DHT22;23548;51.196;6.838;2023-08-06T10:21:38;16.00;99.90
37702;DHT22;23548;51.196;6.838;2023-08-06T10:24:07;16.00;99.90
37702;DHT22;23548;51.196;6.838;2023-08-06T10:26:36;16.00;99.90
37702;DHT22;23548;51.196;6.838;2023-08-06T10:29:37;15.90;99.90
37702;DHT22;23548;51.196;6.838;2023-08-06T10:32:03;15.70;99.90
37702;DHT22;23548;51.196;6.838;2023-08-06T10:34:54;15.80;99.90
37702;DHT22;23548;51.196;6.838;2023-08-06T10:37:22;15.70;99.90
37702;DHT22;23548;51.196;6.838;2023-08-06T10:39:52;15.50;99.90
37702;DHT22;23548;51.196;6.838;2023-08-06T10:42:28;15.40;99.90
37702;DHT22;23548;51.196;6.838;2023-08-06T10:45:23;15.40;99.90
37702;DHT22;23548;51.196;6.838;2023-08-06T10:47:54;15.30;99.90
37702;DHT22;23548;51.196;6.838;2023-08-06T10:50:21;15.40;99.90
37702;DHT22;23548;51.196;6.838;2023-08-06T10:52:48;15.10;99.90
37702;DHT22;23548;51.196;6.838;2023-08-06T10:55:14;15.00;99.90
37702;DHT22;23548;51.196;6.838;2023-08-06T10:57:47;14.90;99.90
37702;DHT22;23548;51.196;6.838;2023-08-06T11:00:14;14.90;99.90
37702;DHT22;23548;51.196;6.838;2023-08-06T11:02:39;14.90;99.90
37702;DHT22;23548;51.196;6.838;2023-08-06T11:05:09;14.90;99.90
37702;DHT22;23548;51.196;6.838;2023-08-06T11:07:36;14.90;99.90
37702;DHT22;23548;51.196;6.838;2023-08-06T11:10:06;14.90;99.90
37702;DHT22;23548;51.196;6.838;2023-08-06T11:12:33;14.90;99.90
37702;DHT22;23548;51.196;6.838;2023-08-06T11:15:00;15.00;99.90
37702;DHT22;23548;51.196;6.838;2023-08-06T11:17:30;15.10;99.90
37702;DHT22;23548;51.196;6.838;2023-08-06T11:19:59;15.20;99.90
37702;DHT22;23548;51.196;6.838;2023-08-06T11:22:25;15.10;99.90
37702;DHT22;23548;51.196;6.838;2023-08-06T11:24:53;15.10;99.90
37702;DHT22;23548;51.196;6.838;2023-08-06T11:27:19;15.10;99.90
37702;DHT22;23548;51.196;6.838;2023-08-06T11:29:45;15.10;99.90
37702;DHT22;23548;51.196;6.838;2023-08-06T11:32:11;15.00;99.90
37702;DHT22;23548;51.196;6.838;2023-08-06T11:34:38;15.00;99.90
37702;DHT22;23548;51.196;6.838;2023-08-06T11:37:05;15.00;99.90
37702;DHT22;23548;51.196;6.838;2023-08-06T11:39:35;15.00;99.90
37702;DHT22;23548;51.196;6.838;2023-08-06T11:42:06;15.00;99.90
37702;DHT22;23548;51.196;6.838;2023-08-06T11:44:34;14.90;99.90
37702;DHT22;23548;51.196;6.838;2023-08-06T11:47:02;14.90;99.90
37702;DHT22;23548;51.196;6.838;2023-08-06T11:49:49;14.90;99.90
37702;DHT22;23548;51.196;6.838;2023-08-06T11:52:22;14.90;99.90
37702;DHT22;23548;51.196;6.838;2023-08-06T11:55:08;14.90;99.90
37702;DHT22;23548;51.196;6.838;2023-08-06T11:57:38;14.90;99.90
37702;DHT22;23548;51.196;6.838;2023-08-06T12:00:15;15.00;99.90
37702;DHT22;23548;51.196;6.838;2023-08-06T12:02:45;15.00;99.90
37702;DHT22;23548;51.196;6.838;2023-08-06T12:05:12;14.90;99.90
37702;DHT22;23548;51.196;6.838;2023-08-06T12:07:41;15.00;99.90
37702;DHT22;23548;51.196;6.838;2023-08-06T12:10:08;15.00;99.90
37702;DHT22;23548;51.196;6.838;2023-08-06T12:12:35;15.10;99.90
37702;DHT22;23548;51.196;6.838;2023-08-06T12:15:01;15.00;99.90
37702;DHT22;23548;51.196;6.838;2023-08-06T12:17:27;15.20;99.90
37702;DHT22;23548;51.196;6.838;2023-08-06T12:19:53;15.10;99.90
37702;DHT22;23548;51.196;6.838;2023-08-06T12:22:19;15.00;99.90
37702;DHT22;23548;51.196;6.838;2023-08-06T12:24:46;15.10;99.90
37702;DHT22;23548;51.196;6.838;2023-08-06T12:27:13;15.10;99.90
37702;DHT22;23548;51.196;6.838;2023-08-06T12:29:44;15.10;99.90
37702;DHT22;23548;51.196;6.838;2023-08-06T12:32:11;15.20;99.90
37702;DHT22;23548;51.196;6.838;2023-08-06T12:34:40;15.20;99.90
37702;DHT22;23548;51.196;6.838;2023-08-06T12:37:07;15.20;99.90
37702;DHT22;23548;51.196;6.838;2023-08-06T12:39:33;15.20;99.90
37702;DHT22;23548;51.196;6.838;2023-08-06T12:42:01;15.20;99.90
37702;DHT22;23548;51.196;6.838;2023-08-06T12:44:27;15.30;99.90
37702;DHT22;23548;51.196;6.838;2023-08-06T12:46:55;15.30;99.90
37702;DHT22;23548;51.196;6.838;2023-08-06T12:49:21;15.40;99.90
37702;DHT22;23548;51.196;6.838;2023-08-06T12:51:48;15.30;99.90
37702;DHT22;23548;51.196;6.838;2023-08-06T12:54:17;15.40;99.90
37702;DHT22;23548;51.196;6.838;2023-08-06T12:56:44;15.30;99.90
37702;DHT22;23548;51.196;6.838;2023-08-06T12:59:09;15.30;99.90
37702;DHT22;23548;51.196;6.838;2023-08-06T13:01:37;15.30;99.90
37702;DHT22;23548;51.196;6.838;2023-08-06T13:04:03;15.30;99.90
37702;DHT22;23548;51.196;6.838;2023-08-06T13:06:29;15.40;99.90
37702;DHT22;23548;51.196;6.838;2023-08-06T13:08:57;15.50;99.90
37702;DHT22;23548;51.196;6.838;2023-08-06T13:11:23;15.40;99.90
37702;DHT22;23548;51.196;6.838;2023-08-06T13:13:49;15.50;99.90
37702;DHT22;23548;51.196;6.838;2023-08-06T13:16:15;15.50;99.90
37702;DHT22;23548;51.196;6.838;2023-08-06T13:18:41;15.60;99.90
37702;DHT22;23548;51.196;6.838;2023-08-06T13:21:07;15.50;99.90
37702;DHT22;23548;51.196;6.838;2023-08-06T13:23:32;15.60;99.90
37702;DHT22;23548;51.196;6.838;2023-08-06T13:25:58;15.60;99.90
37702;DHT22;23548;51.196;6.838;2023-08-06T13:28:24;15.70;99.90
37702;DHT22;23548;51.196;6.838;2023-08-06T13:30:50;15.80;99.90
37702;DHT22;23548;51.196;6.838;2023-08-06T13:33:16;15.90;99.90
37702;DHT22;23548;51.196;6.838;2023-08-06T13:35:42;15.80;99.90
37702;DHT22;23548;51.196;6.838;2023-08-06T13:38:07;15.80;99.90
37702;DHT22;23548;51.196;6.838;2023-08-06T13:40:34;15.60;99.90
37702;DHT22;23548;51.196;6.838;2023-08-06T13:43:00;15.60;99.90
37702;DHT22;23548;51.196;6.838;2023-08-06T13:45:25;15.60;99.90
37702;DHT22;23548;51.196;6.838;2023-08-06T13:47:51;15.60;99.90
37702;DHT22;23548;51.196;6.838;2023-08-06T13:50:17;15.80;99.90
37702;DHT22;23548;51.196;6.838;2023-08-06T13:52:44;15.90;99.90
37702;DHT22;23548;51.196;6.838;2023-08-06T13:55:10;15.90;99.90
37702;DHT22;23548;51.196;6.838;2023-08-06T13:57:36;15.80;99.90
37702;DHT22;23548;51.196;6.838;2023-08-06T14:00:02;15.80;99.90
37702;DHT22;23548;51.196;6.838;2023-08-06T14:02:28;15.70;99.90
37702;DHT22;23548;51.196;6.838;2023-08-06T14:04:55;15.70;99.90
37702;DHT22;23548;51.196;6.838;2023-08-06T14:07:21;15.70;99.90
37702;DHT22;23548;51.196;6.838;2023-08-06T14:09:47;15.80;99.90
37702;DHT22;23548;51.196;6.838;2023-08-06T14:12:14;15.90;99.90
37702;DHT22;23548;51.196;6.838;2023-08-06T14:14:40;16.10;99.90
37702;DHT22;23548;51.196;6.838;2023-08-06T14:17:06;16.30;99.90
37702;DHT22;23548;51.196;6.838;2023-08-06T14:19:32;16.30;99.90
37702;DHT22;23548;51.196;6.838;2023-08-06T14:21:58;16.30;99.90
37702;DHT22;23548;51.196;6.838;2023-08-06T14:24:24;16.50;99.90
37702;DHT22;23548;51.196;6.838;2023-08-06T14:26:50;16.90;99.90
37702;DHT22;23548;51.196;6.838;2023-08-06T14:29:15;17.30;99.90
37702;DHT22;23548;51.196;6.838;2023-08-06T14:31:41;17.50;99.90
37702;DHT22;23548;51.196;6.838;2023-08-06T14:34:07;17.70;99.90
37702;DHT22;23548;51.196;6.838;2023-08-06T14:36:36;17.80;99.90
37702;DHT22;23548;51.196;6.838;2023-08-06T14:39:02;17.90;99.90
37702;DHT22;23548;51.196;6.838;2023-08-06T14:41:28;18.10;99.90
37702;DHT22;23548;51.196;6.838;2023-08-06T14:43:53;18.00;99.90
37702;DHT22;23548;51.196;6.838;2023-08-06T14:46:19;17.80;99.90
37702;DHT22;23548;51.196;6.838;2023-08-06T14:48:45;17.80;99.90
37702;DHT22;23548;51.196;6.838;2023-08-06T14:51:11;17.70;99.90
37702;DHT22;23548;51.196;6.838;2023-08-06T14:53:37;17.70;99.90
37702;DHT22;23548;51.196;6.838;2023-08-06T14:56:03;17.70;99.90
37702;DHT22;23548;51.196;6.838;2023-08-06T14:58:29;17.50;99.90
37702;DHT22;23548;51.196;6.838;2023-08-06T15:00:55;17.40;99.90
37702;DHT22;23548;51.196;6.838;2023-08-06T15:03:20;17.60;99.90
37702;DHT22;23548;51.196;6.838;2023-08-06T15:05:49;17.80;99.90
37702;DHT22;23548;51.196;6.838;2023-08-06T15:08:15;17.80;99.90
37702;DHT22;23548;51.196;6.838;2023-08-06T15:10:41;17.70;99.90
37702;DHT22;23548;51.196;6.838;2023-08-06T15:13:07;17.60;99.90
37702;DHT22;23548;51.196;6.838;2023-08-06T15:15:33;17.50;99.90
37702;DHT22;23548;51.196;6.838;2023-08-06T15:17:59;17.40;99.90
37702;DHT22;23548;51.196;6.838;2023-08-06T15:20:25;17.30;99.90
37702;DHT22;23548;51.196;6.838;2023-08-06T15:22:51;17.20;99.90
37702;DHT22;23548;51.196;6.838;2023-08-06T15:25:16;17.10;99.90
37702;DHT22;23548;51.196;6.838;2023-08-06T15:27:42;17.10;99.90
37702;DHT22;23548;51.196;6.838;2023-08-06T15:30:14;17.20;99.90
37702;DHT22;23548;51.196;6.838;2023-08-06T15:32:40;17.20;99.90